Time;durP1;ratioP1;P1;durP2;ratioP2;P2;SDS_P1;SDS_P2;PMS_P1;PMS_P2;Temp;Humidity;BMP_temperature;BMP_pressure;BME280_temperature;BME280_humidity;BME280_pressure;Samples;Min_cycle;Max_cycle;Signal;HPM_P1;HPM_P2
2023/10/11 16:50:34;;;;;;;;;;;20.20;99.90;;;;;;5077662;28;20285;-65
2023/10/11 16:53:09;;;;;;;16.80;7.18;;;20.10;99.90;;;;;;5057766;28;19931;-65
2023/10/11 16:55:35;;;;;;;15.68;6.68;;;20.10;99.90;;;;;;5059226;28;20147;-65
2023/10/11 16:58:03;;;;;;;8.80;5.75;;;20.10;99.90;;;;;;5070008;28;20025;-66
2023/10/11 17:00:32;;;;;;;;;;;20.10;99.90;;;;;;5062845;28;20035;-66
2023/10/11 17:03:00;;;;;;;16.67;7.03;;;20.10;99.90;;;;;;5059306;28;19912;-66
2023/10/11 17:05:31;;;;;;;16.20;7.43;;;20.20;99.90;;;;;;5059894;28;20406;-66
2023/10/11 17:07:57;;;;;;;16.08;7.38;;;20.10;99.90;;;;;;5057986;28;20029;-66
2023/10/11 17:10:24;;;;;;;16.25;7.15;;;20.10;99.90;;;;;;5056682;28;20067;-66
2023/10/11 17:12:50;;;;;;;13.17;6.13;;;20.10;99.90;;;;;;5049627;28;20025;-66
2023/10/11 17:15:23;;;;;;;16.58;6.85;;;20.10;99.90;;;;;;5053207;28;20454;-66
2023/10/11 17:17:52;;;;;;;12.73;6.50;;;20.10;99.90;;;;;;5057007;28;20024;-66
2023/10/11 17:20:19;;;;;;;13.43;8.13;;;20.10;99.90;;;;;;5052871;28;20082;-66
2023/10/11 17:22:50;;;;;;;18.85;7.35;;;20.10;99.90;;;;;;5049922;28;20052;-66
2023/10/11 17:25:20;;;;;;;12.88;6.78;;;20.10;99.90;;;;;;5052211;28;20025;-66
2023/10/11 17:27:48;;;;;;;11.98;5.88;;;20.10;99.90;;;;;;5051288;28;20029;-66
2023/10/11 17:30:17;;;;;;;15.70;8.05;;;20.10;99.90;;;;;;5048614;28;20028;-66
2023/10/11 17:32:47;;;;;;;17.30;7.40;;;20.00;99.90;;;;;;5053577;28;20055;-66
2023/10/11 17:35:14;;;;;;;15.70;7.90;;;20.00;99.90;;;;;;5051702;28;20035;-66
2023/10/11 17:37:42;;;;;;;14.43;7.57;;;20.00;99.90;;;;;;5055591;28;20025;-66
2023/10/11 17:40:10;;;;;;;17.45;8.38;;;20.00;99.90;;;;;;5043878;28;20293;-66
2023/10/11 17:42:38;;;;;;;14.32;7.15;;;19.90;99.90;;;;;;5054151;28;20155;-66
2023/10/11 17:45:05;;;;;;;15.45;8.13;;;19.90;99.90;;;;;;5050444;28;20025;-66
2023/10/11 17:47:30;;;;;;;16.92;8.85;;;20.00;99.90;;;;;;5054913;28;20032;-66
2023/10/11 17:49:59;;;;;;;14.05;7.70;;;19.90;99.90;;;;;;5044596;28;20095;-66
2023/10/11 17:52:29;;;;;;;13.55;7.32;;;19.90;99.90;;;;;;5049908;28;20029;-66
2023/10/11 17:54:55;;;;;;;18.10;8.63;;;19.90;99.90;;;;;;5053997;28;20033;-66
2023/10/11 17:57:23;;;;;;;12.07;8.38;;;19.90;99.90;;;;;;5055924;28;20032;-66
2023/10/11 17:59:54;;;;;;;14.50;8.35;;;19.90;99.90;;;;;;5049556;28;20025;-66
2023/10/11 18:02:23;;;;;;;17.80;8.45;;;19.90;99.90;;;;;;5030437;28;20086;-66
2023/10/11 18:04:51;;;;;;;16.75;9.23;;;19.90;99.90;;;;;;5043310;28;20082;-66
2023/10/11 18:07:20;;;;;;;18.33;8.35;;;19.90;99.90;;;;;;5037857;28;20547;-66
2023/10/11 18:09:50;;;;;;;18.17;9.23;;;19.80;99.90;;;;;;5038049;28;20044;-66
2023/10/11 18:12:18;;;;;;;20.65;9.80;;;19.90;99.90;;;;;;5043037;28;20099;-66
2023/10/11 18:14:43;;;;;;;;;;;19.80;99.90;;;;;;5043029;28;20033;-66
2023/10/11 18:17:11;;;;;;;19.42;9.00;;;19.80;99.90;;;;;;5037524;28;20007;-66
2023/10/11 18:19:38;;;;;;;17.60;8.75;;;19.80;99.90;;;;;;5031973;28;20026;-66
2023/10/11 18:22:07;;;;;;;15.27;8.73;;;19.80;99.90;;;;;;5039302;28;20036;-66
2023/10/11 18:24:37;;;;;;;18.27;9.65;;;19.80;99.90;;;;;;5038697;28;20555;-66
2023/10/11 18:27:10;;;;;;;17.63;9.10;;;19.90;99.90;;;;;;5043419;28;20108;-66
2023/10/11 18:29:42;;;;;;;21.88;9.45;;;19.80;99.90;;;;;;5039166;28;20032;-66
2023/10/11 18:32:10;;;;;;;18.98;8.88;;;19.80;99.90;;;;;;5036249;28;20021;-66
2023/10/11 18:34:41;;;;;;;17.60;8.93;;;19.80;99.90;;;;;;5043427;28;20048;-66
2023/10/11 18:37:09;;;;;;;17.55;8.93;;;19.80;99.90;;;;;;5038292;28;20033;-66
2023/10/11 18:39:37;;;;;;;15.30;8.75;;;19.70;99.90;;;;;;5043258;28;20119;-66
2023/10/11 18:42:03;;;;;;;18.77;9.20;;;19.70;99.90;;;;;;5041987;28;20039;-66
2023/10/11 18:44:30;;;;;;;22.48;9.40;;;19.70;99.90;;;;;;5039004;28;20116;-66
2023/10/11 18:46:56;;;;;;;15.90;9.00;;;19.70;99.90;;;;;;5035198;28;20395;-66
2023/10/11 18:49:22;;;;;;;19.85;9.18;;;19.60;99.90;;;;;;5043876;28;20033;-66
2023/10/11 18:51:51;;;;;;;16.48;9.05;;;19.60;99.90;;;;;;5053341;28;20021;-66
2023/10/11 18:54:19;;;;;;;20.83;10.18;;;19.60;99.90;;;;;;5076244;28;20199;-66
2023/10/11 18:56:45;;;;;;;15.18;9.38;;;19.50;99.90;;;;;;5060264;28;20394;-66
2023/10/11 18:59:12;;;;;;;15.70;9.52;;;19.50;99.90;;;;;;5058336;28;20032;-66
2023/10/11 19:01:40;;;;;;;20.88;10.30;;;19.50;99.90;;;;;;5059192;28;20605;-66
2023/10/11 19:04:06;;;;;;;;;;;19.50;99.90;;;;;;5054161;28;20392;-66
2023/10/11 19:06:31;;;;;;;20.15;8.80;;;19.40;99.90;;;;;;5045484;28;19908;-66
2023/10/11 19:08:58;;;;;;;24.67;10.25;;;19.50;99.90;;;;;;5057280;28;20029;-66
2023/10/11 19:11:28;;;;;;;20.77;10.15;;;19.50;99.90;;;;;;5052700;28;20417;-66
2023/10/11 19:13:55;;;;;;;18.63;10.18;;;19.50;99.90;;;;;;5052133;28;20108;-66
2023/10/11 19:16:25;;;;;;;26.60;9.77;;;19.50;99.90;;;;;;5051622;28;20479;-66
2023/10/11 19:18:53;;;;;;;20.38;9.48;;;19.50;99.90;;;;;;5062764;28;20542;-67
2023/10/11 19:21:19;;;;;;;19.50;9.82;;;19.50;99.90;;;;;;5057983;28;20116;-66
2023/10/11 19:23:48;;;;;;;20.08;11.20;;;19.50;99.90;;;;;;5058185;28;20503;-66
2023/10/11 19:26:16;;;;;;;19.27;10.45;;;19.50;99.90;;;;;;5065440;28;20372;-66
2023/10/11 19:28:42;;;;;;;15.80;9.70;;;19.50;99.90;;;;;;5057442;28;20036;-66
2023/10/11 19:31:08;;;;;;;19.02;10.18;;;19.50;99.90;;;;;;5055162;28;20177;-66
2023/10/11 19:33:33;;;;;;;21.77;10.15;;;19.50;99.90;;;;;;5062945;28;20025;-66
2023/10/11 19:36:07;;;;;;;19.63;10.02;;;19.50;99.90;;;;;;5057108;28;21142;-66
2023/10/11 19:38:35;;;;;;;18.02;10.30;;;19.50;99.90;;;;;;5053392;28;20021;-66
2023/10/11 19:41:06;;;;;;;18.52;9.55;;;19.50;99.90;;;;;;5053301;28;20395;-66
2023/10/11 19:43:35;;;;;;;19.77;10.77;;;19.50;99.90;;;;;;5055297;28;20479;-66
2023/10/11 19:46:08;;;;;;;17.90;9.82;;;19.40;99.90;;;;;;5061834;28;20063;-66
2023/10/11 19:48:35;;;;;;;19.10;9.32;;;19.40;99.90;;;;;;5060161;28;20028;-66
2023/10/11 19:51:01;;;;;;;20.92;9.57;;;19.40;99.90;;;;;;5055663;28;20078;-66
2023/10/11 19:53:27;;;;;;;18.48;9.07;;;19.40;99.90;;;;;;5060205;28;20025;-66
2023/10/11 19:55:55;;;;;;;17.63;9.98;;;19.40;99.90;;;;;;5055236;28;20040;-66
2023/10/11 19:58:21;;;;;;;19.70;10.57;;;19.40;99.90;;;;;;5059937;28;20017;-66
2023/10/11 20:00:49;;;;;;;15.30;8.88;;;19.40;99.90;;;;;;5056929;28;20513;-66
2023/10/11 20:03:21;;;;;;;18.80;9.73;;;19.40;99.90;;;;;;5061299;28;20039;-66
2023/10/11 20:05:47;;;;;;;16.90;10.30;;;19.40;99.90;;;;;;5065040;28;20028;-66
2023/10/11 20:08:15;;;;;;;19.23;10.30;;;19.40;99.90;;;;;;5055341;28;20015;-66
2023/10/11 20:10:44;;;;;;;20.75;10.98;;;19.40;99.90;;;;;;5065001;28;20085;-66
2023/10/11 20:13:12;;;;;;;17.92;9.60;;;19.50;99.90;;;;;;5051543;28;20083;-66
2023/10/11 20:15:38;;;;;;;;;;;19.50;99.90;;;;;;5060922;28;20028;-66
2023/10/11 20:18:04;;;;;;;20.65;9.02;;;19.40;99.90;;;;;;5060237;28;19912;-66
2023/10/11 20:20:36;;;;;;;16.38;9.35;;;19.40;99.90;;;;;;5060424;28;20471;-67
2023/10/11 20:23:05;;;;;;;20.95;9.95;;;19.40;99.90;;;;;;5055134;28;20410;-66
2023/10/11 20:25:31;;;;;;;15.20;8.68;;;19.40;99.90;;;;;;5059512;28;20052;-66
2023/10/11 20:27:59;;;;;;;15.70;8.65;;;19.40;99.90;;;;;;5059779;28;20553;-66
2023/10/11 20:30:28;;;;;;;17.90;8.82;;;19.50;99.90;;;;;;5063680;28;20030;-66
2023/10/11 20:32:55;;;;;;;14.27;8.10;;;19.50;99.90;;;;;;5043861;28;20029;-66
2023/10/11 20:35:26;;;;;;;23.15;8.18;;;19.50;99.90;;;;;;5056102;28;20502;-66
2023/10/11 20:37:54;;;;;;;15.23;8.23;;;19.50;99.90;;;;;;5042414;28;20024;-66
2023/10/11 20:40:22;;;;;;;16.25;7.07;;;19.50;99.90;;;;;;5061041;28;20029;-66
2023/10/11 20:42:53;;;;;;;14.73;7.18;;;19.40;99.90;;;;;;5060547;28;20025;-66
2023/10/11 20:45:22;;;;;;;17.20;7.65;;;19.40;99.90;;;;;;5056957;28;20594;-66
2023/10/11 20:47:52;;;;;;;16.88;7.45;;;19.40;99.90;;;;;;5060282;28;20467;-66
2023/10/11 20:50:18;;;;;;;17.77;7.05;;;19.40;99.90;;;;;;5061023;28;20028;-66
2023/10/11 20:52:54;;;;;;;18.75;7.30;;;19.40;99.90;;;;;;5057806;28;20187;-66
2023/10/11 20:55:25;;;;;;;14.55;6.18;;;19.50;99.90;;;;;;5061490;28;20108;-66
2023/10/11 20:58:06;;;;;;;20.63;6.68;;;19.50;99.90;;;;;;5075915;28;20044;-66
2023/10/11 21:00:43;;;;;;;8.68;5.03;;;19.40;99.90;;;;;;5059790;28;20040;-66
2023/10/11 21:03:11;;;;;;;20.85;6.07;;;19.50;99.90;;;;;;5055406;28;20062;-66
2023/10/11 21:05:37;;;;;;;15.57;5.28;;;19.50;99.90;;;;;;5062151;28;20032;-66
2023/10/11 21:08:03;;;;;;;12.90;4.82;;;19.50;99.90;;;;;;5055996;28;20445;-66
2023/10/11 21:10:31;;;;;;;16.75;5.15;;;19.50;99.90;;;;;;5074273;28;20044;-66
2023/10/11 21:12:58;;;;;;;;;;;19.50;99.90;;;;;;5061518;28;20425;-66
2023/10/11 21:15:24;;;;;;;11.13;3.60;;;19.50;99.90;;;;;;5057785;28;20454;-66
2023/10/11 21:17:52;;;;;;;11.95;4.03;;;19.60;99.90;;;;;;5060015;28;20629;-73
2023/10/11 21:20:18;;;;;;;11.48;4.15;;;19.60;99.90;;;;;;5052390;28;20503;-72
2023/10/11 21:22:43;;;;;;;16.90;3.90;;;19.60;99.90;;;;;;5062243;28;20398;-72
2023/10/11 21:25:14;;;;;;;13.07;3.72;;;19.60;99.90;;;;;;5063909;28;20020;-72
2023/10/11 21:27:45;;;;;;;12.68;4.00;;;19.70;99.40;;;;;;5060782;28;20040;-72
2023/10/11 21:30:17;;;;;;;12.77;3.70;;;19.70;99.20;;;;;;5058645;28;20070;-72
2023/10/11 21:32:47;;;;;;;13.98;3.92;;;19.80;98.70;;;;;;5058678;28;20033;-72
2023/10/11 21:35:17;;;;;;;13.93;4.25;;;19.80;98.20;;;;;;5062080;28;20475;-72
2023/10/11 21:37:47;;;;;;;17.63;4.03;;;19.80;98.30;;;;;;5078991;28;20024;-72
2023/10/11 21:40:13;;;;;;;11.30;3.38;;;19.90;98.20;;;;;;5062196;28;20024;-72
2023/10/11 21:42:40;;;;;;;11.25;3.17;;;19.90;97.60;;;;;;5060271;28;20029;-73
2023/10/11 21:45:06;;;;;;;12.10;3.60;;;20.00;97.60;;;;;;5058263;28;20040;-74
2023/10/11 21:47:32;;;;;;;14.10;3.38;;;20.00;97.80;;;;;;5062544;28;20051;-72
2023/10/11 21:49:57;;;;;;;16.13;3.60;;;20.00;97.20;;;;;;5061545;28;20474;-72
2023/10/11 21:52:23;;;;;;;18.17;3.55;;;20.00;97.20;;;;;;5061499;28;20063;-72
2023/10/11 21:54:49;;;;;;;14.52;3.17;;;20.10;97.00;;;;;;5066718;28;20024;-72
2023/10/11 21:57:14;;;;;;;10.65;3.10;;;20.10;97.10;;;;;;5066562;28;20032;-72
2023/10/11 21:59:40;;;;;;;14.18;3.42;;;20.20;96.80;;;;;;5065186;28;20036;-72
2023/10/11 22:02:06;;;;;;;14.90;3.55;;;20.20;96.60;;;;;;5057520;28;20025;-72
2023/10/11 22:04:31;;;;;;;9.07;3.17;;;20.20;96.70;;;;;;5059916;28;20029;-72
2023/10/11 22:06:59;;;;;;;9.13;3.15;;;20.20;97.00;;;;;;5061906;28;20044;-73
2023/10/11 22:09:25;;;;;;;12.85;3.70;;;20.20;96.60;;;;;;5058598;28;20189;-72
2023/10/11 22:11:51;;;;;;;16.02;3.85;;;20.20;96.40;;;;;;5062545;28;20476;-72
2023/10/11 22:14:25;;;;;;;9.55;3.88;;;20.30;96.30;;;;;;5060697;28;20036;-72
2023/10/11 22:16:53;;;;;;;10.05;3.42;;;20.30;96.60;;;;;;5061616;28;20016;-72
2023/10/11 22:19:19;;;;;;;14.02;3.42;;;20.20;96.70;;;;;;5077791;28;20048;-73
2023/10/11 22:21:45;;;;;;;14.60;4.13;;;20.30;96.50;;;;;;5058772;28;20071;-72
2023/10/11 22:24:17;;;;;;;14.98;3.85;;;20.30;96.40;;;;;;5063441;28;20032;-72
2023/10/11 22:26:43;;;;;;;10.38;3.55;;;20.30;96.30;;;;;;5063556;28;20032;-72
2023/10/11 22:29:12;;;;;;;9.68;3.63;;;20.30;96.40;;;;;;5061590;28;20033;-72
2023/10/11 22:31:40;;;;;;;16.77;3.95;;;20.30;96.50;;;;;;5059294;28;20021;-72
2023/10/11 22:34:06;;;;;;;16.45;3.80;;;20.30;96.40;;;;;;5057576;28;20025;-72
2023/10/11 22:36:32;;;;;;;10.20;3.10;;;20.30;96.30;;;;;;5063862;28;20047;-72
2023/10/11 22:39:00;;;;;;;8.63;3.80;;;20.30;96.20;;;;;;5059711;28;20506;-72
2023/10/11 22:41:26;;;;;;;17.55;4.35;;;20.30;96.40;;;;;;5066665;28;20028;-72
2023/10/11 22:43:53;;;;;;;12.05;3.22;;;20.30;96.50;;;;;;5059577;28;20040;-72
2023/10/11 22:46:20;;;;;;;17.23;3.72;;;20.30;96.50;;;;;;5046671;28;20033;-72
2023/10/11 22:48:47;;;;;;;9.77;3.97;;;20.30;96.60;;;;;;5057898;28;20483;-72
2023/10/11 22:51:16;;;;;;;11.18;3.42;;;20.30;96.60;;;;;;5056976;28;20032;-72
2023/10/11 22:53:45;;;;;;;11.93;3.28;;;20.30;96.70;;;;;;5065773;28;20024;-72
2023/10/11 22:56:16;;;;;;;13.45;4.20;;;20.30;96.90;;;;;;5054818;28;20027;-72
2023/10/11 22:58:45;;;;;;;10.38;3.38;;;20.30;96.70;;;;;;5060851;28;20100;-72
2023/10/11 23:01:15;;;;;;;10.23;3.80;;;20.30;96.70;;;;;;5058971;28;20076;-72
2023/10/11 23:03:41;;;;;;;11.25;3.72;;;20.30;97.00;;;;;;5061143;28;20083;-72
2023/10/11 23:06:10;;;;;;;14.63;4.53;;;20.20;97.30;;;;;;5061955;28;20032;-72
2023/10/11 23:08:39;;;;;;;12.13;4.00;;;20.30;97.70;;;;;;5061422;28;20036;-72
2023/10/11 23:11:18;;;;;;;13.43;3.97;;;20.20;97.80;;;;;;5057477;28;20078;-72
2023/10/11 23:13:48;;;;;;;10.90;3.97;;;20.20;98.00;;;;;;5061907;28;20016;-72
2023/10/11 23:16:21;;;;;;;11.35;3.60;;;20.20;98.00;;;;;;5064865;28;20012;-72
2023/10/11 23:18:48;;;;;;;13.40;4.03;;;20.10;98.30;;;;;;5061967;28;20617;-72
2023/10/11 23:21:20;;;;;;;8.43;3.87;;;20.10;98.00;;;;;;5065722;28;20059;-72
2023/10/11 23:23:51;;;;;;;9.02;3.67;;;20.00;97.90;;;;;;5057559;28;20344;-72
2023/10/11 23:26:27;;;;;;;20.50;3.95;;;20.00;98.10;;;;;;5060937;28;20021;-72
2023/10/11 23:28:56;;;;;;;13.60;4.50;;;20.00;98.00;;;;;;5067049;28;20184;-72
2023/10/11 23:31:26;;;;;;;8.32;3.50;;;20.00;98.10;;;;;;5059619;28;20036;-72
2023/10/11 23:33:52;;;;;;;13.65;4.07;;;20.00;98.30;;;;;;5061675;28;20056;-72
2023/10/11 23:36:22;;;;;;;10.57;3.53;;;20.00;98.10;;;;;;5063754;28;20095;-72
2023/10/11 23:39:06;;;;;;;12.20;5.43;;;20.00;98.30;;;;;;5057051;28;20508;-72
2023/10/11 23:41:44;;;;;;;10.10;4.38;;;20.00;98.20;;;;;;5040058;28;20037;-72
2023/10/11 23:44:19;;;;;;;11.25;3.63;;;19.90;98.20;;;;;;5060090;28;20478;-73
2023/10/11 23:46:58;;;;;;;16.38;3.80;;;20.00;98.30;;;;;;5063332;28;20032;-72
2023/10/11 23:49:30;;;;;;;13.25;4.30;;;19.90;98.20;;;;;;5056738;28;20029;-72
2023/10/11 23:52:00;;;;;;;10.18;3.50;;;19.90;98.30;;;;;;5055099;28;20091;-72
2023/10/11 23:54:30;;;;;;;12.32;4.10;;;19.90;98.30;;;;;;5040230;28;20432;-72
2023/10/11 23:56:58;;;;;;;12.00;3.72;;;19.90;98.20;;;;;;5056322;28;20029;-72
2023/10/11 23:59:31;;;;;;;15.18;4.28;;;19.90;98.20;;;;;;5056380;28;20028;-72
